sensor_id;sensor_type;location;lat;lon;timestamp;pressure;altitude;pressure_sealevel;temperature;humidity
62881;BME280;48969;49.934;8.596;2022-07-23T00:00:08;62722.75;;;-145.30;100.00
62881;BME280;48969;49.934;8.596;2022-07-23T00:02:34;62722.75;;;-145.30;100.00
62881;BME280;48969;49.934;8.596;2022-07-23T00:04:59;62722.75;;;-145.30;100.00
62881;BME280;48969;49.934;8.596;2022-07-23T00:07:24;62722.75;;;-145.30;100.00
62881;BME280;48969;49.934;8.596;2022-07-23T00:09:50;62722.75;;;-145.30;100.00
62881;BME280;48969;49.934;8.596;2022-07-23T00:12:15;62722.75;;;-145.30;100.00
62881;BME280;48969;49.934;8.596;2022-07-23T00:14:40;62722.75;;;-145.30;100.00
62881;BME280;48969;49.934;8.596;2022-07-23T00:17:06;62722.75;;;-145.30;100.00
62881;BME280;48969;49.934;8.596;2022-07-23T00:19:31;62722.75;;;-145.30;100.00
62881;BME280;48969;49.934;8.596;2022-07-23T00:21:56;62722.75;;;-145.30;100.00
62881;BME280;48969;49.934;8.596;2022-07-23T00:24:22;62722.75;;;-145.30;100.00
62881;BME280;48969;49.934;8.596;2022-07-23T00:30:09;62722.75;;;-145.30;100.00
62881;BME280;48969;49.934;8.596;2022-07-23T00:32:56;62722.75;;;-145.30;100.00
62881;BME280;48969;49.934;8.596;2022-07-23T00:35:23;62722.75;;;-145.30;100.00
62881;BME280;48969;49.934;8.596;2022-07-23T00:37:50;62722.75;;;-145.30;100.00
62881;BME280;48969;49.934;8.596;2022-07-23T00:40:15;62722.75;;;-145.30;100.00
62881;BME280;48969;49.934;8.596;2022-07-23T00:42:40;62722.75;;;-145.30;100.00
62881;BME280;48969;49.934;8.596;2022-07-23T00:45:06;62722.75;;;-145.30;100.00
62881;BME280;48969;49.934;8.596;2022-07-23T00:47:32;62722.75;;;-145.30;100.00
62881;BME280;48969;49.934;8.596;2022-07-23T00:49:58;62722.75;;;-145.30;100.00
62881;BME280;48969;49.934;8.596;2022-07-23T00:52:23;62722.75;;;-145.30;100.00
62881;BME280;48969;49.934;8.596;2022-07-23T00:54:49;62722.75;;;-145.30;100.00
62881;BME280;48969;49.934;8.596;2022-07-23T00:57:15;62722.75;;;-145.30;100.00
62881;BME280;48969;49.934;8.596;2022-07-23T00:59:41;62722.75;;;-145.30;100.00
62881;BME280;48969;49.934;8.596;2022-07-23T01:02:06;62722.75;;;-145.30;100.00
62881;BME280;48969;49.934;8.596;2022-07-23T01:04:32;62722.75;;;-145.30;100.00
62881;BME280;48969;49.934;8.596;2022-07-23T01:06:57;62722.75;;;-145.30;100.00
62881;BME280;48969;49.934;8.596;2022-07-23T01:09:23;62722.75;;;-145.30;100.00
62881;BME280;48969;49.934;8.596;2022-07-23T01:11:50;62722.75;;;-145.30;100.00
62881;BME280;48969;49.934;8.596;2022-07-23T01:14:17;62722.75;;;-145.30;100.00
62881;BME280;48969;49.934;8.596;2022-07-23T01:16:44;62722.75;;;-145.30;100.00
62881;BME280;48969;49.934;8.596;2022-07-23T01:19:10;62722.75;;;-145.30;100.00
62881;BME280;48969;49.934;8.596;2022-07-23T01:21:38;62722.75;;;-145.30;100.00
62881;BME280;48969;49.934;8.596;2022-07-23T01:24:04;62722.75;;;-145.30;100.00
62881;BME280;48969;49.934;8.596;2022-07-23T01:26:29;62722.75;;;-145.30;100.00
62881;BME280;48969;49.934;8.596;2022-07-23T01:28:55;62722.75;;;-145.30;100.00
62881;BME280;48969;49.934;8.596;2022-07-23T01:31:21;62722.75;;;-145.30;100.00
62881;BME280;48969;49.934;8.596;2022-07-23T01:33:46;62722.75;;;-145.30;100.00
62881;BME280;48969;49.934;8.596;2022-07-23T01:36:11;62722.75;;;-145.30;100.00
62881;BME280;48969;49.934;8.596;2022-07-23T01:38:36;62722.75;;;-145.30;100.00
62881;BME280;48969;49.934;8.596;2022-07-23T01:41:02;62722.75;;;-145.30;100.00
62881;BME280;48969;49.934;8.596;2022-07-23T01:43:28;62722.75;;;-145.30;100.00
62881;BME280;48969;49.934;8.596;2022-07-23T01:45:53;62722.75;;;-145.30;100.00
62881;BME280;48969;49.934;8.596;2022-07-23T01:48:18;62722.75;;;-145.30;100.00
62881;BME280;48969;49.934;8.596;2022-07-23T01:50:46;62722.75;;;-145.30;100.00
62881;BME280;48969;49.934;8.596;2022-07-23T01:53:11;62722.75;;;-145.30;100.00
62881;BME280;48969;49.934;8.596;2022-07-23T01:55:36;62722.75;;;-145.30;100.00
62881;BME280;48969;49.934;8.596;2022-07-23T01:58:02;62722.75;;;-145.30;100.00
62881;BME280;48969;49.934;8.596;2022-07-23T02:00:27;62722.75;;;-145.30;100.00
62881;BME280;48969;49.934;8.596;2022-07-23T02:02:52;62722.75;;;-145.30;100.00
62881;BME280;48969;49.934;8.596;2022-07-23T02:05:18;62722.75;;;-145.30;100.00
62881;BME280;48969;49.934;8.596;2022-07-23T02:07:43;62722.75;;;-145.30;100.00
62881;BME280;48969;49.934;8.596;2022-07-23T02:10:09;62722.75;;;-145.30;100.00
62881;BME280;48969;49.934;8.596;2022-07-23T02:12:34;62722.75;;;-145.30;100.00
62881;BME280;48969;49.934;8.596;2022-07-23T02:14:59;62722.75;;;-145.30;100.00
62881;BME280;48969;49.934;8.596;2022-07-23T02:17:25;62722.75;;;-145.30;100.00
62881;BME280;48969;49.934;8.596;2022-07-23T02:19:50;62722.75;;;-145.30;100.00
62881;BME280;48969;49.934;8.596;2022-07-23T02:22:15;62722.75;;;-145.30;100.00
62881;BME280;48969;49.934;8.596;2022-07-23T02:24:41;62722.75;;;-145.30;100.00
62881;BME280;48969;49.934;8.596;2022-07-23T02:27:06;62722.75;;;-145.30;100.00
62881;BME280;48969;49.934;8.596;2022-07-23T02:29:31;62722.75;;;-145.30;100.00
62881;BME280;48969;49.934;8.596;2022-07-23T02:31:56;62722.75;;;-145.30;100.00
62881;BME280;48969;49.934;8.596;2022-07-23T02:34:22;62722.75;;;-145.30;100.00
62881;BME280;48969;49.934;8.596;2022-07-23T02:36:47;62722.75;;;-145.30;100.00
62881;BME280;48969;49.934;8.596;2022-07-23T02:39:12;62722.75;;;-145.30;100.00
62881;BME280;48969;49.934;8.596;2022-07-23T02:41:39;62722.75;;;-145.30;100.00
62881;BME280;48969;49.934;8.596;2022-07-23T02:44:05;62722.75;;;-145.30;100.00
62881;BME280;48969;49.934;8.596;2022-07-23T02:46:30;62722.75;;;-145.30;100.00
62881;BME280;48969;49.934;8.596;2022-07-23T02:48:56;62722.75;;;-145.30;100.00
62881;BME280;48969;49.934;8.596;2022-07-23T02:51:21;62722.75;;;-145.30;100.00
62881;BME280;48969;49.934;8.596;2022-07-23T02:53:46;62722.75;;;-145.30;100.00
62881;BME280;48969;49.934;8.596;2022-07-23T02:56:12;62722.75;;;-145.30;100.00
62881;BME280;48969;49.934;8.596;2022-07-23T02:58:37;62722.75;;;-145.30;100.00
62881;BME280;48969;49.934;8.596;2022-07-23T03:01:03;62722.75;;;-145.30;100.00
62881;BME280;48969;49.934;8.596;2022-07-23T03:03:28;62722.75;;;-145.30;100.00
62881;BME280;48969;49.934;8.596;2022-07-23T03:05:53;62722.75;;;-145.30;100.00
62881;BME280;48969;49.934;8.596;2022-07-23T03:08:19;62722.75;;;-145.30;100.00
62881;BME280;48969;49.934;8.596;2022-07-23T03:10:44;62722.75;;;-145.30;100.00
62881;BME280;48969;49.934;8.596;2022-07-23T03:13:09;62722.75;;;-145.30;100.00
62881;BME280;48969;49.934;8.596;2022-07-23T03:15:35;62722.75;;;-145.30;100.00
62881;BME280;48969;49.934;8.596;2022-07-23T03:18:00;62722.75;;;-145.30;100.00
62881;BME280;48969;49.934;8.596;2022-07-23T03:20:25;62722.75;;;-145.30;100.00
62881;BME280;48969;49.934;8.596;2022-07-23T03:22:51;62722.75;;;-145.30;100.00
62881;BME280;48969;49.934;8.596;2022-07-23T03:25:16;62722.75;;;-145.30;100.00
62881;BME280;48969;49.934;8.596;2022-07-23T03:27:41;62722.75;;;-145.30;100.00
62881;BME280;48969;49.934;8.596;2022-07-23T03:30:07;62722.75;;;-145.30;100.00
62881;BME280;48969;49.934;8.596;2022-07-23T03:32:32;62722.75;;;-145.30;100.00
62881;BME280;48969;49.934;8.596;2022-07-23T03:34:58;62722.75;;;-145.30;100.00
62881;BME280;48969;49.934;8.596;2022-07-23T03:37:23;62722.75;;;-145.30;100.00
62881;BME280;48969;49.934;8.596;2022-07-23T03:39:48;62722.75;;;-145.30;100.00
62881;BME280;48969;49.934;8.596;2022-07-23T03:42:14;62722.75;;;-145.30;100.00
62881;BME280;48969;49.934;8.596;2022-07-23T03:44:39;62722.75;;;-145.30;100.00
62881;BME280;48969;49.934;8.596;2022-07-23T03:47:05;62722.75;;;-145.30;100.00
62881;BME280;48969;49.934;8.596;2022-07-23T03:49:30;62722.75;;;-145.30;100.00
62881;BME280;48969;49.934;8.596;2022-07-23T03:51:56;62722.75;;;-145.30;100.00
62881;BME280;48969;49.934;8.596;2022-07-23T03:54:21;62722.75;;;-145.30;100.00
62881;BME280;48969;49.934;8.596;2022-07-23T03:56:47;62722.75;;;-145.30;100.00
62881;BME280;48969;49.934;8.596;2022-07-23T03:59:12;62722.75;;;-145.30;100.00
62881;BME280;48969;49.934;8.596;2022-07-23T04:01:38;62722.75;;;-145.30;100.00
62881;BME280;48969;49.934;8.596;2022-07-23T04:04:03;62722.75;;;-145.30;100.00
62881;BME280;48969;49.934;8.596;2022-07-23T04:06:29;62722.75;;;-145.30;100.00
62881;BME280;48969;49.934;8.596;2022-07-23T04:08:54;62722.75;;;-145.30;100.00
62881;BME280;48969;49.934;8.596;2022-07-23T04:11:20;62722.75;;;-145.30;100.00
62881;BME280;48969;49.934;8.596;2022-07-23T04:13:45;62722.75;;;-145.30;100.00
62881;BME280;48969;49.934;8.596;2022-07-23T04:16:11;62722.75;;;-145.30;100.00
62881;BME280;48969;49.934;8.596;2022-07-23T04:18:36;62722.75;;;-145.30;100.00
62881;BME280;48969;49.934;8.596;2022-07-23T04:21:02;62722.75;;;-145.30;100.00
62881;BME280;48969;49.934;8.596;2022-07-23T04:23:27;62722.75;;;-145.30;100.00
62881;BME280;48969;49.934;8.596;2022-07-23T04:25:52;62722.75;;;-145.30;100.00
62881;BME280;48969;49.934;8.596;2022-07-23T04:28:18;62722.75;;;-145.30;100.00
62881;BME280;48969;49.934;8.596;2022-07-23T04:30:43;62722.75;;;-145.30;100.00
62881;BME280;48969;49.934;8.596;2022-07-23T04:33:09;62722.75;;;-145.30;100.00
62881;BME280;48969;49.934;8.596;2022-07-23T04:35:35;62722.75;;;-145.30;100.00
62881;BME280;48969;49.934;8.596;2022-07-23T04:38:01;62722.75;;;-145.30;100.00
62881;BME280;48969;49.934;8.596;2022-07-23T04:40:27;62722.75;;;-145.30;100.00
62881;BME280;48969;49.934;8.596;2022-07-23T04:42:52;62722.75;;;-145.30;100.00
62881;BME280;48969;49.934;8.596;2022-07-23T04:45:18;62722.75;;;-145.30;100.00
62881;BME280;48969;49.934;8.596;2022-07-23T04:47:43;62722.75;;;-145.30;100.00
62881;BME280;48969;49.934;8.596;2022-07-23T04:50:09;62722.75;;;-145.30;100.00
62881;BME280;48969;49.934;8.596;2022-07-23T04:52:34;62722.75;;;-145.30;100.00
62881;BME280;48969;49.934;8.596;2022-07-23T04:54:59;62722.75;;;-145.30;100.00
62881;BME280;48969;49.934;8.596;2022-07-23T04:57:25;62722.75;;;-145.30;100.00
62881;BME280;48969;49.934;8.596;2022-07-23T04:59:50;62722.75;;;-145.30;100.00
62881;BME280;48969;49.934;8.596;2022-07-23T05:02:15;62722.75;;;-145.30;100.00
62881;BME280;48969;49.934;8.596;2022-07-23T05:04:41;62722.75;;;-145.30;100.00
62881;BME280;48969;49.934;8.596;2022-07-23T05:07:06;62722.75;;;-145.30;100.00
62881;BME280;48969;49.934;8.596;2022-07-23T05:09:31;62722.75;;;-145.30;100.00
62881;BME280;48969;49.934;8.596;2022-07-23T05:11:57;62722.75;;;-145.30;100.00
62881;BME280;48969;49.934;8.596;2022-07-23T05:14:22;62722.75;;;-145.30;100.00
62881;BME280;48969;49.934;8.596;2022-07-23T05:16:47;62722.75;;;-145.30;100.00
62881;BME280;48969;49.934;8.596;2022-07-23T05:19:13;62722.75;;;-145.30;100.00
62881;BME280;48969;49.934;8.596;2022-07-23T05:21:39;62722.75;;;-145.30;100.00
62881;BME280;48969;49.934;8.596;2022-07-23T05:24:04;62722.75;;;-145.30;100.00
62881;BME280;48969;49.934;8.596;2022-07-23T05:26:30;62722.75;;;-145.30;100.00
62881;BME280;48969;49.934;8.596;2022-07-23T05:28:55;62722.75;;;-145.30;100.00
62881;BME280;48969;49.934;8.596;2022-07-23T05:31:20;62722.75;;;-145.30;100.00
62881;BME280;48969;49.934;8.596;2022-07-23T05:33:46;62722.75;;;-145.30;100.00
62881;BME280;48969;49.934;8.596;2022-07-23T05:36:11;62722.75;;;-145.30;100.00
62881;BME280;48969;49.934;8.596;2022-07-23T05:38:36;62722.75;;;-145.30;100.00
62881;BME280;48969;49.934;8.596;2022-07-23T05:41:02;62722.75;;;-145.30;100.00
62881;BME280;48969;49.934;8.596;2022-07-23T05:43:27;62722.75;;;-145.30;100.00
62881;BME280;48969;49.934;8.596;2022-07-23T05:45:53;62722.75;;;-145.30;100.00
62881;BME280;48969;49.934;8.596;2022-07-23T05:48:19;62722.75;;;-145.30;100.00
62881;BME280;48969;49.934;8.596;2022-07-23T05:50:45;62722.75;;;-145.30;100.00
62881;BME280;48969;49.934;8.596;2022-07-23T05:53:10;62722.75;;;-145.30;100.00
62881;BME280;48969;49.934;8.596;2022-07-23T05:55:35;62722.75;;;-145.30;100.00
62881;BME280;48969;49.934;8.596;2022-07-23T05:58:01;62722.75;;;-145.30;100.00
62881;BME280;48969;49.934;8.596;2022-07-23T06:00:26;62722.75;;;-145.30;100.00
62881;BME280;48969;49.934;8.596;2022-07-23T06:02:52;62722.75;;;-145.30;100.00
62881;BME280;48969;49.934;8.596;2022-07-23T06:05:18;62722.75;;;-145.30;100.00
62881;BME280;48969;49.934;8.596;2022-07-23T06:07:43;62722.75;;;-145.30;100.00
62881;BME280;48969;49.934;8.596;2022-07-23T06:10:08;62722.75;;;-145.30;100.00
62881;BME280;48969;49.934;8.596;2022-07-23T06:12:34;62722.75;;;-145.30;100.00
62881;BME280;48969;49.934;8.596;2022-07-23T06:14:59;62722.75;;;-145.30;100.00
62881;BME280;48969;49.934;8.596;2022-07-23T06:17:25;62722.75;;;-145.30;100.00
62881;BME280;48969;49.934;8.596;2022-07-23T06:19:50;62722.75;;;-145.30;100.00
62881;BME280;48969;49.934;8.596;2022-07-23T06:22:16;62722.75;;;-145.30;100.00
62881;BME280;48969;49.934;8.596;2022-07-23T06:24:41;62722.75;;;-145.30;100.00
62881;BME280;48969;49.934;8.596;2022-07-23T06:27:07;62722.75;;;-145.30;100.00
62881;BME280;48969;49.934;8.596;2022-07-23T06:29:32;62722.75;;;-145.30;100.00
62881;BME280;48969;49.934;8.596;2022-07-23T06:31:57;62722.75;;;-145.30;100.00
62881;BME280;48969;49.934;8.596;2022-07-23T06:34:23;62722.75;;;-145.30;100.00
62881;BME280;48969;49.934;8.596;2022-07-23T06:36:48;62722.75;;;-145.30;100.00
62881;BME280;48969;49.934;8.596;2022-07-23T06:39:13;62722.75;;;-145.30;100.00
62881;BME280;48969;49.934;8.596;2022-07-23T06:41:39;62722.75;;;-145.30;100.00
62881;BME280;48969;49.934;8.596;2022-07-23T06:44:05;62722.75;;;-145.30;100.00
62881;BME280;48969;49.934;8.596;2022-07-23T06:46:31;62722.75;;;-145.30;100.00
62881;BME280;48969;49.934;8.596;2022-07-23T06:48:56;62722.75;;;-145.30;100.00
62881;BME280;48969;49.934;8.596;2022-07-23T06:51:21;62722.75;;;-145.30;100.00
62881;BME280;48969;49.934;8.596;2022-07-23T06:53:47;62722.75;;;-145.30;100.00
62881;BME280;48969;49.934;8.596;2022-07-23T06:56:12;62722.75;;;-145.30;100.00
62881;BME280;48969;49.934;8.596;2022-07-23T06:58:37;62722.75;;;-145.30;100.00
62881;BME280;48969;49.934;8.596;2022-07-23T07:01:02;62722.75;;;-145.30;100.00
62881;BME280;48969;49.934;8.596;2022-07-23T07:03:28;62722.75;;;-145.30;100.00
62881;BME280;48969;49.934;8.596;2022-07-23T07:05:53;62722.75;;;-145.30;100.00
62881;BME280;48969;49.934;8.596;2022-07-23T07:08:19;62722.75;;;-145.30;100.00
62881;BME280;48969;49.934;8.596;2022-07-23T07:10:44;62722.75;;;-145.30;100.00
62881;BME280;48969;49.934;8.596;2022-07-23T07:13:09;62722.75;;;-145.30;100.00
62881;BME280;48969;49.934;8.596;2022-07-23T07:15:35;62722.75;;;-145.30;100.00
62881;BME280;48969;49.934;8.596;2022-07-23T07:18:00;62722.75;;;-145.30;100.00
62881;BME280;48969;49.934;8.596;2022-07-23T07:20:25;62722.75;;;-145.30;100.00
62881;BME280;48969;49.934;8.596;2022-07-23T07:22:51;62722.75;;;-145.30;100.00
62881;BME280;48969;49.934;8.596;2022-07-23T07:25:16;62722.75;;;-145.30;100.00
62881;BME280;48969;49.934;8.596;2022-07-23T07:27:42;62722.75;;;-145.30;100.00
62881;BME280;48969;49.934;8.596;2022-07-23T07:30:10;62722.75;;;-145.30;100.00
62881;BME280;48969;49.934;8.596;2022-07-23T07:32:35;62722.75;;;-145.30;100.00
62881;BME280;48969;49.934;8.596;2022-07-23T07:35:03;62722.75;;;-145.30;100.00
62881;BME280;48969;49.934;8.596;2022-07-23T07:37:28;62722.75;;;-145.30;100.00
62881;BME280;48969;49.934;8.596;2022-07-23T07:39:54;62722.75;;;-145.30;100.00
62881;BME280;48969;49.934;8.596;2022-07-23T07:42:19;62722.75;;;-145.30;100.00
62881;BME280;48969;49.934;8.596;2022-07-23T07:44:44;62722.75;;;-145.30;100.00
62881;BME280;48969;49.934;8.596;2022-07-23T07:47:10;62722.75;;;-145.30;100.00
62881;BME280;48969;49.934;8.596;2022-07-23T07:49:35;62722.75;;;-145.30;100.00
62881;BME280;48969;49.934;8.596;2022-07-23T07:52:00;62722.75;;;-145.30;100.00
62881;BME280;48969;49.934;8.596;2022-07-23T07:54:26;62722.75;;;-145.30;100.00
62881;BME280;48969;49.934;8.596;2022-07-23T07:56:51;62722.75;;;-145.30;100.00
62881;BME280;48969;49.934;8.596;2022-07-23T07:59:16;62722.75;;;-145.30;100.00
62881;BME280;48969;49.934;8.596;2022-07-23T08:01:42;62722.75;;;-145.30;100.00
62881;BME280;48969;49.934;8.596;2022-07-23T08:04:07;62722.75;;;-145.30;100.00
62881;BME280;48969;49.934;8.596;2022-07-23T08:06:32;62722.75;;;-145.30;100.00
62881;BME280;48969;49.934;8.596;2022-07-23T08:08:58;62722.75;;;-145.30;100.00
62881;BME280;48969;49.934;8.596;2022-07-23T08:11:23;62722.75;;;-145.30;100.00
62881;BME280;48969;49.934;8.596;2022-07-23T08:13:48;62722.75;;;-145.30;100.00
62881;BME280;48969;49.934;8.596;2022-07-23T08:16:14;62722.75;;;-145.30;100.00
62881;BME280;48969;49.934;8.596;2022-07-23T08:18:39;62722.75;;;-145.30;100.00
62881;BME280;48969;49.934;8.596;2022-07-23T08:21:04;62722.75;;;-145.30;100.00
62881;BME280;48969;49.934;8.596;2022-07-23T08:23:31;62722.75;;;-145.30;100.00
62881;BME280;48969;49.934;8.596;2022-07-23T08:25:56;62722.75;;;-145.30;100.00
62881;BME280;48969;49.934;8.596;2022-07-23T08:28:22;62722.75;;;-145.30;100.00
62881;BME280;48969;49.934;8.596;2022-07-23T08:30:48;62722.75;;;-145.30;100.00
62881;BME280;48969;49.934;8.596;2022-07-23T08:33:17;62722.75;;;-145.30;100.00
62881;BME280;48969;49.934;8.596;2022-07-23T08:35:45;62722.75;;;-145.30;100.00
62881;BME280;48969;49.934;8.596;2022-07-23T08:38:12;62722.75;;;-145.30;100.00
62881;BME280;48969;49.934;8.596;2022-07-23T08:40:40;62722.75;;;-145.30;100.00
62881;BME280;48969;49.934;8.596;2022-07-23T08:43:09;62722.75;;;-145.30;100.00
62881;BME280;48969;49.934;8.596;2022-07-23T08:45:39;62722.75;;;-145.30;100.00
62881;BME280;48969;49.934;8.596;2022-07-23T08:48:08;62722.75;;;-145.30;100.00
62881;BME280;48969;49.934;8.596;2022-07-23T08:50:34;62722.75;;;-145.30;100.00
62881;BME280;48969;49.934;8.596;2022-07-23T08:53:06;62722.75;;;-145.30;100.00
62881;BME280;48969;49.934;8.596;2022-07-23T08:55:31;62722.75;;;-145.30;100.00
62881;BME280;48969;49.934;8.596;2022-07-23T08:57:57;62722.75;;;-145.30;100.00
62881;BME280;48969;49.934;8.596;2022-07-23T09:00:22;62722.75;;;-145.30;100.00
62881;BME280;48969;49.934;8.596;2022-07-23T09:02:48;62722.75;;;-145.30;100.00
62881;BME280;48969;49.934;8.596;2022-07-23T09:05:15;62722.75;;;-145.30;100.00
62881;BME280;48969;49.934;8.596;2022-07-23T09:08:09;62722.75;;;-145.30;100.00
62881;BME280;48969;49.934;8.596;2022-07-23T09:16:11;62722.75;;;-145.30;100.00
62881;BME280;48969;49.934;8.596;2022-07-23T09:18:48;62722.75;;;-145.30;100.00
62881;BME280;48969;49.934;8.596;2022-07-23T09:21:15;62722.75;;;-145.30;100.00
62881;BME280;48969;49.934;8.596;2022-07-23T09:23:49;62722.75;;;-145.30;100.00
62881;BME280;48969;49.934;8.596;2022-07-23T09:26:22;62722.75;;;-145.30;100.00
62881;BME280;48969;49.934;8.596;2022-07-23T09:31:34;62722.75;;;-145.30;100.00
62881;BME280;48969;49.934;8.596;2022-07-23T09:34:13;62722.75;;;-145.30;100.00
62881;BME280;48969;49.934;8.596;2022-07-23T09:36:38;62722.75;;;-145.30;100.00
62881;BME280;48969;49.934;8.596;2022-07-23T09:39:05;62722.75;;;-145.30;100.00
62881;BME280;48969;49.934;8.596;2022-07-23T09:41:35;62722.75;;;-145.30;100.00
62881;BME280;48969;49.934;8.596;2022-07-23T09:44:10;62722.75;;;-145.30;100.00
62881;BME280;48969;49.934;8.596;2022-07-23T09:46:36;62722.75;;;-145.30;100.00
62881;BME280;48969;49.934;8.596;2022-07-23T09:49:11;62722.75;;;-145.30;100.00
62881;BME280;48969;49.934;8.596;2022-07-23T09:51:53;62722.75;;;-145.30;100.00
62881;BME280;48969;49.934;8.596;2022-07-23T09:56:51;62722.75;;;-145.30;100.00
62881;BME280;48969;49.934;8.596;2022-07-23T09:59:17;62722.75;;;-145.30;100.00
62881;BME280;48969;49.934;8.596;2022-07-23T10:01:44;62722.75;;;-145.30;100.00
62881;BME280;48969;49.934;8.596;2022-07-23T10:04:11;62722.75;;;-145.30;100.00
62881;BME280;48969;49.934;8.596;2022-07-23T10:06:38;62722.75;;;-145.30;100.00
62881;BME280;48969;49.934;8.596;2022-07-23T10:09:04;62722.75;;;-145.30;100.00
62881;BME280;48969;49.934;8.596;2022-07-23T10:11:30;62722.75;;;-145.30;100.00
62881;BME280;48969;49.934;8.596;2022-07-23T10:13:56;62722.75;;;-145.30;100.00
62881;BME280;48969;49.934;8.596;2022-07-23T10:16:25;62722.75;;;-145.30;100.00
62881;BME280;48969;49.934;8.596;2022-07-23T10:18:51;62722.75;;;-145.30;100.00
62881;BME280;48969;49.934;8.596;2022-07-23T10:21:24;62722.75;;;-145.30;100.00
62881;BME280;48969;49.934;8.596;2022-07-23T10:24:28;62722.75;;;-145.30;100.00
62881;BME280;48969;49.934;8.596;2022-07-23T10:26:58;62722.75;;;-145.30;100.00
62881;BME280;48969;49.934;8.596;2022-07-23T10:29:48;62722.75;;;-145.30;100.00
62881;BME280;48969;49.934;8.596;2022-07-23T10:35:26;62722.75;;;-145.30;100.00
62881;BME280;48969;49.934;8.596;2022-07-23T10:38:01;62722.75;;;-145.30;100.00
62881;BME280;48969;49.934;8.596;2022-07-23T10:40:27;62722.75;;;-145.30;100.00
62881;BME280;48969;49.934;8.596;2022-07-23T10:42:59;62722.75;;;-145.30;100.00
62881;BME280;48969;49.934;8.596;2022-07-23T10:45:35;62722.75;;;-145.30;100.00
62881;BME280;48969;49.934;8.596;2022-07-23T10:48:16;62722.75;;;-145.30;100.00
62881;BME280;48969;49.934;8.596;2022-07-23T10:50:43;62722.75;;;-145.30;100.00
62881;BME280;48969;49.934;8.596;2022-07-23T10:53:16;62722.75;;;-145.30;100.00
62881;BME280;48969;49.934;8.596;2022-07-23T10:55:51;62722.75;;;-145.30;100.00
62881;BME280;48969;49.934;8.596;2022-07-23T10:58:22;62722.75;;;-145.30;100.00
62881;BME280;48969;49.934;8.596;2022-07-23T11:00:48;62722.75;;;-145.30;100.00
62881;BME280;48969;49.934;8.596;2022-07-23T11:05:54;62722.75;;;-145.30;100.00
62881;BME280;48969;49.934;8.596;2022-07-23T11:08:20;62722.75;;;-145.30;100.00
62881;BME280;48969;49.934;8.596;2022-07-23T11:11:08;62722.75;;;-145.30;100.00
62881;BME280;48969;49.934;8.596;2022-07-23T11:13:46;62722.75;;;-145.30;100.00
62881;BME280;48969;49.934;8.596;2022-07-23T11:32:06;100720.34;;;26.98;51.14
62881;BME280;48969;49.934;8.596;2022-07-23T11:37:09;100731.59;;;26.95;49.81
62881;BME280;48969;49.934;8.596;2022-07-23T11:39:37;100724.34;;;27.02;49.35
62881;BME280;48969;49.934;8.596;2022-07-23T11:42:05;100725.84;;;26.83;50.42
62881;BME280;48969;49.934;8.596;2022-07-23T11:44:37;100722.06;;;26.84;51.89
62881;BME280;48969;49.934;8.596;2022-07-23T11:47:08;100716.00;;;26.82;52.36
62881;BME280;48969;49.934;8.596;2022-07-23T11:49:35;100722.72;;;26.86;52.59
62881;BME280;48969;49.934;8.596;2022-07-23T11:52:14;100720.31;;;26.77;51.54
62881;BME280;48969;49.934;8.596;2022-07-23T11:54:54;100718.84;;;26.59;51.78
62881;BME280;48969;49.934;8.596;2022-07-23T11:57:27;100714.94;;;26.62;51.34
62881;BME280;48969;49.934;8.596;2022-07-23T11:59:55;100714.63;;;27.36;47.67
62881;BME280;48969;49.934;8.596;2022-07-23T12:02:22;100718.34;;;27.57;47.70
62881;BME280;48969;49.934;8.596;2022-07-23T12:04:50;100712.09;;;27.13;48.96
62881;BME280;48969;49.934;8.596;2022-07-23T12:10:09;100704.97;;;27.12;47.07
62881;BME280;48969;49.934;8.596;2022-07-23T12:12:54;100710.28;;;26.99;47.74
62881;BME280;48969;49.934;8.596;2022-07-23T12:15:31;100708.13;;;26.73;48.14
62881;BME280;48969;49.934;8.596;2022-07-23T12:17:59;100705.38;;;26.51;48.81
62881;BME280;48969;49.934;8.596;2022-07-23T12:20:29;100705.59;;;26.35;50.28
62881;BME280;48969;49.934;8.596;2022-07-23T12:22:59;100702.97;;;26.26;51.67
62881;BME280;48969;49.934;8.596;2022-07-23T12:25:30;100697.44;;;26.35;49.57
62881;BME280;48969;49.934;8.596;2022-07-23T12:27:59;100698.09;;;26.37;50.96
62881;BME280;48969;49.934;8.596;2022-07-23T12:30:32;100693.34;;;26.45;51.07
62881;BME280;48969;49.934;8.596;2022-07-23T12:33:04;100696.09;;;26.60;50.51
62881;BME280;48969;49.934;8.596;2022-07-23T12:35:40;100694.16;;;26.76;49.52
62881;BME280;48969;49.934;8.596;2022-07-23T12:38:18;100693.91;;;26.92;49.17
62881;BME280;48969;49.934;8.596;2022-07-23T12:40:46;100697.22;;;26.87;48.96
62881;BME280;48969;49.934;8.596;2022-07-23T12:43:34;100698.16;;;26.80;48.06
62881;BME280;48969;49.934;8.596;2022-07-23T12:46:03;100701.66;;;26.74;48.97
62881;BME280;48969;49.934;8.596;2022-07-23T12:48:35;100704.31;;;26.88;48.77
62881;BME280;48969;49.934;8.596;2022-07-23T12:51:09;100705.56;;;26.86;48.71
62881;BME280;48969;49.934;8.596;2022-07-23T12:53:54;100700.63;;;26.75;49.14
62881;BME280;48969;49.934;8.596;2022-07-23T12:56:27;100707.47;;;26.70;48.62
62881;BME280;48969;49.934;8.596;2022-07-23T12:58:55;100705.41;;;26.73;47.88
62881;BME280;48969;49.934;8.596;2022-07-23T13:01:23;100707.13;;;26.74;48.71
62881;BME280;48969;49.934;8.596;2022-07-23T13:04:03;100707.16;;;26.59;49.57
62881;BME280;48969;49.934;8.596;2022-07-23T13:06:33;100707.13;;;26.74;49.72
62881;BME280;48969;49.934;8.596;2022-07-23T13:08:59;100703.03;;;26.48;49.67
62881;BME280;48969;49.934;8.596;2022-07-23T13:11:25;100709.97;;;26.50;49.52
62881;BME280;48969;49.934;8.596;2022-07-23T13:13:51;100701.59;;;26.52;49.09